Time;durP1;ratioP1;P1;durP2;ratioP2;P2;SDS_P1;SDS_P2;PMS_P1;PMS_P2;Temp;Humidity;BMP_temperature;BMP_pressure;BME280_temperature;BME280_humidity;BME280_pressure;Samples;Min_cycle;Max_cycle;Signal;HPM_P1;HPM_P2
2022/07/28 00:00:28;;;;;;;;;;;;;;;21.50;30.12;97625.00;4882183;29;926;-78
2022/07/28 00:02:53;;;;;;;;;;;;;;;21.33;30.50;97629.16;4882008;29;962;-77
2022/07/28 00:05:19;;;;;;;;;;;;;;;21.49;30.30;97636.75;4881590;29;967;-77
2022/07/28 00:07:44;;;;;;;;;;;;;;;21.24;30.63;97635.50;4882010;29;1982;-77
2022/07/28 00:10:10;;;;;;;;;;;;;;;21.23;30.69;97638.75;4879580;29;945;-77
2022/07/28 00:12:35;;;;;;;;;;;;;;;21.42;30.42;97639.81;4881644;29;957;-78
2022/07/28 00:15:01;;;;;;;;;;;;;;;21.25;30.63;97648.38;4881766;29;900;-77
2022/07/28 00:17:26;;;;;;;;;;;;;;;21.23;30.84;97650.84;4881813;29;949;-77
2022/07/28 00:19:52;;;;;;;;;;;;;;;21.20;30.82;97646.13;4882136;29;892;-77
2022/07/28 00:22:17;;;;;;;;;;;;;;;20.95;31.31;97651.72;4865180;29;935;-78
2022/07/28 00:24:43;;;;;;;;;;;;;;;21.18;31.00;97645.75;4881385;29;922;-78
2022/07/28 00:27:08;;;;;;;;;;;;;;;21.42;30.33;97645.47;4881984;29;1906;-78
2022/07/28 00:29:34;;;;;;;;;;;;;;;21.49;30.27;97646.03;4881520;29;1156;-78
2022/07/28 00:31:59;;;;;;;;;;;;;;;21.50;30.33;97644.81;4881567;29;947;-77
2022/07/28 00:34:25;;;;;;;;;;;;;;;21.29;30.82;97645.44;4881544;29;918;-78
2022/07/28 00:36:50;;;;;;;;;;;;;;;21.36;30.63;97650.91;4881466;29;1202;-77
2022/07/28 00:39:15;;;;;;;;;;;;;;;21.28;30.63;97647.47;4881812;29;938;-78
2022/07/28 00:41:41;;;;;;;;;;;;;;;21.42;30.75;97653.97;4881640;29;932;-77
2022/07/28 00:44:07;;;;;;;;;;;;;;;21.22;30.20;97606.03;4848600;29;1017;-78
2022/07/28 00:46:32;;;;;;;;;;;;;;;21.42;30.35;97645.47;4881336;29;964;-77
2022/07/28 00:48:58;;;;;;;;;;;;;;;21.30;30.49;97649.91;4865044;29;1978;-77
2022/07/28 00:51:23;;;;;;;;;;;;;;;21.41;30.71;97655.22;4865096;29;1102;-78
2022/07/28 00:53:49;;;;;;;;;;;;;;;21.65;30.21;97662.13;4878869;29;1093;-77
2022/07/28 00:56:14;;;;;;;;;;;;;;;21.47;30.21;97670.41;4879069;29;1114;-78
2022/07/28 00:58:40;;;;;;;;;;;;;;;21.46;30.23;97668.81;4879535;29;1112;-78
2022/07/28 01:01:06;;;;;;;;;;;;;;;21.38;30.42;97679.56;4881521;29;986;-78
2022/07/28 01:03:31;;;;;;;;;;;;;;;21.35;30.57;97685.31;4882263;29;1061;-78
2022/07/28 01:05:59;;;;;;;;;;;;;;;21.39;30.62;97680.34;4863906;29;968;-77
2022/07/28 01:08:27;;;;;;;;;;;;;;;21.46;30.43;97680.13;4863681;29;1903;-77
2022/07/28 01:10:55;;;;;;;;;;;;;;;21.21;30.90;97676.00;4863751;29;1018;-77
2022/07/28 01:13:39;;;;;;;;;;;;;;;21.25;30.92;97676.69;4863763;29;934;-77
2022/07/28 01:16:05;;;;;;;;;;;;;;;21.31;30.62;97669.25;4863621;29;1039;-78
2022/07/28 01:18:47;;;;;;;;;;;;;;;21.33;30.84;97671.63;4863492;29;1026;-78
2022/07/28 01:21:13;;;;;;;;;;;;;;;21.45;30.36;97655.88;4848418;29;1037;-77
2022/07/28 01:23:58;;;;;;;;;;;;;;;21.21;30.69;97664.69;4863733;29;1057;-77
2022/07/28 01:26:37;;;;;;;;;;;;;;;21.22;31.06;97671.91;4808616;29;1018;-77
2022/07/28 01:29:03;;;;;;;;;;;;;;;21.32;30.81;97665.16;4808510;29;1912;-78
2022/07/28 01:31:35;;;;;;;;;;;;;;;21.39;30.48;97663.34;4808353;29;1062;-77
2022/07/28 01:34:03;;;;;;;;;;;;;;;21.32;30.75;97670.81;4808771;29;885;-77
2022/07/28 01:36:32;;;;;;;;;;;;;;;21.25;30.88;97671.03;4814067;29;1385;-76
2022/07/28 01:38:58;;;;;;;;;;;;;;;21.43;30.71;97664.03;4811662;29;936;-77
2022/07/28 01:41:24;;;;;;;;;;;;;;;21.20;30.91;97671.59;4826333;29;1031;-78
2022/07/28 01:43:50;;;;;;;;;;;;;;;21.39;30.83;97666.97;4811218;29;1087;-77
2022/07/28 01:46:16;;;;;;;;;;;;;;;21.17;30.95;97680.97;4811655;29;1130;-78
2022/07/28 01:48:41;;;;;;;;;;;;;;;21.03;30.92;97681.38;4811254;29;1968;-78
2022/07/28 01:51:07;;;;;;;;;;;;;;;21.17;30.74;97675.31;4811137;29;1000;-77
2022/07/28 01:53:32;;;;;;;;;;;;;;;21.43;30.60;97675.38;4811229;29;999;-77
2022/07/28 01:55:58;;;;;;;;;;;;;;;21.36;30.47;97678.44;4811028;29;951;-77
2022/07/28 01:58:24;;;;;;;;;;;;;;;21.30;30.61;97667.66;4826287;29;982;-77
2022/07/28 02:00:49;;;;;;;;;;;;;;;21.38;30.48;97673.09;4811083;29;882;-77
2022/07/28 02:03:15;;;;;;;;;;;;;;;21.52;30.15;97679.13;4842140;29;1466;-76
2022/07/28 02:05:41;;;;;;;;;;;;;;;21.50;30.48;97675.13;4879497;29;1116;-78
2022/07/28 02:08:06;;;;;;;;;;;;;;;21.47;30.31;97693.03;4864940;29;1962;-78
2022/07/28 02:10:31;;;;;;;;;;;;;;;21.27;30.75;97690.38;4879225;29;1133;-77
2022/07/28 02:12:58;;;;;;;;;;;;;;;21.41;30.48;97700.50;4879113;29;914;-77
2022/07/28 02:15:23;;;;;;;;;;;;;;;21.33;30.54;97699.91;4878907;29;1010;-77
2022/07/28 02:17:49;;;;;;;;;;;;;;;21.40;30.41;97704.56;4878225;29;985;-77
2022/07/28 02:20:14;;;;;;;;;;;;;;;21.46;30.33;97703.56;4879185;29;924;-76
2022/07/28 02:22:40;;;;;;;;;;;;;;;21.33;30.45;97716.91;4847321;29;980;-78
2022/07/28 02:25:06;;;;;;;;;;;;;;;21.38;30.31;97712.72;4862634;29;958;-77
2022/07/28 02:27:37;;;;;;;;;;;;;;;21.51;30.22;97711.50;4862491;29;1903;-77
2022/07/28 02:30:09;;;;;;;;;;;;;;;21.37;30.37;97723.25;4862557;29;1026;-78
2022/07/28 02:32:45;;;;;;;;;;;;;;;21.23;30.56;97730.09;4862294;29;1201;-77
2022/07/28 02:35:15;;;;;;;;;;;;;;;21.24;30.94;97737.34;4862119;29;1062;-78
2022/07/28 02:37:43;;;;;;;;;;;;;;;21.33;30.49;97734.66;4862064;29;992;-78
2022/07/28 02:40:09;;;;;;;;;;;;;;;21.05;31.13;97735.47;4862104;29;1022;-77
2022/07/28 02:42:35;;;;;;;;;;;;;;;21.43;30.70;97740.47;4861987;29;1030;-78
2022/07/28 02:45:01;;;;;;;;;;;;;;;21.36;30.46;97737.88;4862230;29;1087;-77
2022/07/28 02:47:27;;;;;;;;;;;;;;;21.23;30.81;97747.06;4846625;29;1918;-77
2022/07/28 02:49:53;;;;;;;;;;;;;;;21.25;30.65;97736.09;4825318;29;982;-77
2022/07/28 02:52:20;;;;;;;;;;;;;;;21.50;30.33;97745.91;4840422;29;1026;-78
2022/07/28 02:54:46;;;;;;;;;;;;;;;21.38;30.26;97741.03;4840316;29;990;-78
2022/07/28 02:57:11;;;;;;;;;;;;;;;21.26;30.46;97739.72;4825547;29;1007;-77
2022/07/28 02:59:36;;;;;;;;;;;;;;;21.40;30.56;97744.19;4810213;29;968;-77
2022/07/28 03:02:02;;;;;;;;;;;;;;;21.17;30.97;97746.03;4807062;29;1007;-77
2022/07/28 03:07:11;;;;;;;;;;;;;;;21.44;30.13;97750.53;4806662;29;1966;-78
2022/07/28 03:09:40;;;;;;;;;;;;;;;21.36;30.25;97743.53;4791848;29;979;-77
2022/07/28 03:12:06;;;;;;;;;;;;;;;21.40;30.20;97738.53;4791959;29;971;-78
2022/07/28 03:14:31;;;;;;;;;;;;;;;21.45;30.34;97747.28;4791747;29;1185;-77
2022/07/28 03:16:57;;;;;;;;;;;;;;;21.51;30.13;97750.34;4806694;29;1007;-76
2022/07/28 03:19:22;;;;;;;;;;;;;;;21.40;30.48;97753.50;4806732;29;987;-78
2022/07/28 03:21:48;;;;;;;;;;;;;;;21.43;30.22;97741.25;4838661;29;1091;-76
2022/07/28 03:24:14;;;;;;;;;;;;;;;21.54;30.21;97740.94;4842813;29;1036;-77
2022/07/28 03:26:42;;;;;;;;;;;;;;;21.32;30.31;97761.38;4828101;29;1001;-78
2022/07/28 03:29:07;;;;;;;;;;;;;;;21.43;30.09;97755.41;4828080;29;1915;-77
2022/07/28 03:31:33;;;;;;;;;;;;;;;21.24;30.34;97759.19;4843133;29;1063;-77
2022/07/28 03:33:58;;;;;;;;;;;;;;;21.32;30.27;97767.03;4828274;29;1049;-77
2022/07/28 03:36:25;;;;;;;;;;;;;;;21.48;30.22;97756.91;4827612;29;1076;-78
2022/07/28 03:38:52;;;;;;;;;;;;;;;21.45;30.05;97758.59;4834461;29;920;-77
2022/07/28 03:41:18;;;;;;;;;;;;;;;21.24;30.62;97760.00;4863796;29;920;-76
2022/07/28 03:43:43;;;;;;;;;;;;;;;21.41;30.24;97757.13;4863643;29;898;-77
2022/07/28 03:46:09;;;;;;;;;;;;;;;21.37;30.37;97757.22;4879762;29;984;-77
2022/07/28 03:48:34;;;;;;;;;;;;;;;21.40;30.15;97755.50;4864426;29;1973;-77
2022/07/28 03:51:00;;;;;;;;;;;;;;;21.43;30.16;97754.63;4879665;29;993;-77
2022/07/28 03:53:26;;;;;;;;;;;;;;;21.40;30.48;97762.00;4879921;29;1041;-76
2022/07/28 03:55:52;;;;;;;;;;;;;;;21.39;30.09;97765.25;4879678;29;1020;-77
2022/07/28 03:58:21;;;;;;;;;;;;;;;21.53;29.92;97765.63;4879350;29;886;-77
2022/07/28 04:00:46;;;;;;;;;;;;;;;21.59;29.83;97768.69;4879528;29;992;-77
2022/07/28 04:03:12;;;;;;;;;;;;;;;21.18;30.46;97767.41;4879765;29;945;-77
2022/07/28 04:05:37;;;;;;;;;;;;;;;21.26;30.57;97768.81;4863953;29;1032;-76
2022/07/28 04:08:03;;;;;;;;;;;;;;;21.21;30.50;97772.19;4879485;29;1959;-77
2022/07/28 04:10:29;;;;;;;;;;;;;;;21.13;30.59;97765.13;4880122;29;1005;-76
2022/07/28 04:12:55;;;;;;;;;;;;;;;21.30;30.27;97771.59;4864167;29;1015;-77
2022/07/28 04:15:21;;;;;;;;;;;;;;;21.42;30.12;97775.69;4879611;29;1025;-77
2022/07/28 04:17:47;;;;;;;;;;;;;;;21.31;30.57;97773.97;4866881;29;924;-77
2022/07/28 04:20:13;;;;;;;;;;;;;;;21.19;30.60;97766.19;4863244;29;914;-77
2022/07/28 04:22:38;;;;;;;;;;;;;;;21.43;30.25;97777.25;4863039;29;889;-77
2022/07/28 04:25:04;;;;;;;;;;;;;;;21.37;30.31;97779.06;4862824;29;1055;-76
2022/07/28 04:27:29;;;;;;;;;;;;;;;21.25;30.35;97777.75;4863058;29;1911;-77
2022/07/28 04:29:55;;;;;;;;;;;;;;;21.32;30.55;97772.72;4823906;29;1074;-77
2022/07/28 04:32:20;;;;;;;;;;;;;;;21.40;30.20;97778.97;4824464;29;1016;-77
2022/07/28 04:34:46;;;;;;;;;;;;;;;21.13;30.80;97790.59;4824875;29;1092;-77
2022/07/28 04:37:13;;;;;;;;;;;;;;;21.22;30.93;97779.44;4809228;29;1126;-77
2022/07/28 04:39:39;;;;;;;;;;;;;;;21.41;30.36;97788.25;4809301;29;986;-77
2022/07/28 04:42:04;;;;;;;;;;;;;;;21.37;30.28;97779.06;4809453;29;983;-76
2022/07/28 04:44:30;;;;;;;;;;;;;;;21.27;30.57;97787.38;4809269;29;1036;-77
2022/07/28 04:46:56;;;;;;;;;;;;;;;21.06;31.09;97788.78;4809096;29;1912;-76
2022/07/28 04:49:21;;;;;;;;;;;;;;;21.04;31.16;97790.47;4755354;30;1065;-77
2022/07/28 04:51:49;;;;;;;;;;;;;;;21.27;30.46;97793.03;4755287;30;929;-76
2022/07/28 04:54:15;;;;;;;;;;;;;;;21.35;30.61;97787.19;4755599;30;1112;-77
2022/07/28 04:56:40;;;;;;;;;;;;;;;21.37;30.65;97796.84;4753812;30;1114;-77
2022/07/28 04:59:06;;;;;;;;;;;;;;;21.36;30.51;97789.59;4749186;30;1290;-76
2022/07/28 05:01:31;;;;;;;;;;;;;;;21.39;30.44;97793.53;4782387;30;943;-77
2022/07/28 05:03:57;;;;;;;;;;;;;;;21.43;30.17;97789.38;4791263;30;975;-78
2022/07/28 05:06:22;;;;;;;;;;;;;;;21.63;29.95;97794.84;4793461;29;1152;-77
2022/07/28 05:08:49;;;;;;;;;;;;;;;21.59;30.27;97802.66;4790573;30;1919;-77
2022/07/28 05:11:15;;;;;;;;;;;;;;;21.44;30.64;97807.94;4790889;30;1174;-77
2022/07/28 05:13:40;;;;;;;;;;;;;;;21.02;31.39;97804.25;4790857;30;1101;-77
2022/07/28 05:16:06;;;;;;;;;;;;;;;21.21;30.92;97800.50;4818014;29;1024;-77
2022/07/28 05:18:31;;;;;;;;;;;;;;;21.51;30.48;97795.63;4827063;29;1034;-77
2022/07/28 05:20:57;;;;;;;;;;;;;;;21.36;30.43;97805.78;4842279;29;943;-78
2022/07/28 05:23:22;;;;;;;;;;;;;;;21.30;30.61;97792.19;4847242;29;977;-77
2022/07/28 05:25:48;;;;;;;;;;;;;;;21.32;30.61;97806.66;4847349;29;1122;-77
2022/07/28 05:28:13;;;;;;;;;;;;;;;21.42;30.75;97809.66;4847612;29;1907;-77
2022/07/28 05:30:38;;;;;;;;;;;;;;;21.50;30.44;97805.34;4847357;29;936;-77
2022/07/28 05:33:04;;;;;;;;;;;;;;;21.46;30.48;97810.34;4847346;29;995;-78
2022/07/28 05:35:29;;;;;;;;;;;;;;;21.41;30.52;97808.06;4852059;29;1201;-78
2022/07/28 05:37:55;;;;;;;;;;;;;;;21.13;31.08;97810.41;4865645;29;987;-78
2022/07/28 05:40:20;;;;;;;;;;;;;;;21.34;30.68;97809.03;4865425;29;906;-77
2022/07/28 05:42:49;;;;;;;;;;;;;;;21.70;30.32;97814.47;4865496;29;1166;-78
2022/07/28 05:45:14;;;;;;;;;;;;;;;21.57;30.59;97822.16;4865192;29;928;-77
2022/07/28 05:47:50;;;;;;;;;;;;;;;21.24;30.98;97827.91;4865164;29;1907;-78
2022/07/28 05:50:16;;;;;;;;;;;;;;;21.30;30.82;97837.47;4826433;29;958;-77
2022/07/28 05:52:42;;;;;;;;;;;;;;;21.32;31.20;97829.31;4826181;29;982;-78
2022/07/28 05:55:07;;;;;;;;;;;;;;;21.56;30.65;97832.69;4826496;29;930;-77
2022/07/28 05:57:33;;;;;;;;;;;;;;;21.31;30.93;97832.59;4826019;29;1038;-77
2022/07/28 05:59:58;;;;;;;;;;;;;;;21.37;31.10;97841.34;4830968;29;1279;-77
2022/07/28 06:02:24;;;;;;;;;;;;;;;21.24;31.13;97839.22;4852016;29;1329;-79
2022/07/28 06:04:49;;;;;;;;;;;;;;;21.23;31.27;97836.81;4853663;29;1217;-78
2022/07/28 06:07:15;;;;;;;;;;;;;;;21.26;31.24;97842.38;4853155;29;1974;-78
2022/07/28 06:09:40;;;;;;;;;;;;;;;21.32;30.91;97851.94;4851840;29;1309;-77
2022/07/28 06:12:06;;;;;;;;;;;;;;;21.30;31.00;97850.81;4854173;29;1195;-77
2022/07/28 06:14:31;;;;;;;;;;;;;;;21.21;31.46;97845.75;4852555;29;1353;-77
2022/07/28 06:16:57;;;;;;;;;;;;;;;21.13;31.37;97844.34;4862531;29;1132;-78
2022/07/28 06:19:22;;;;;;;;;;;;;;;21.30;31.36;97843.13;4862878;29;888;-77
2022/07/28 06:21:51;;;;;;;;;;;;;;;21.39;31.27;97855.81;4891644;29;930;-78
2022/07/28 06:24:16;;;;;;;;;;;;;;;21.50;31.14;97854.28;4902093;29;943;-78
2022/07/28 06:26:42;;;;;;;;;;;;;;;21.57;30.74;97853.28;4901728;29;1225;-78
2022/07/28 06:29:07;;;;;;;;;;;;;;;21.60;30.91;97860.88;4902255;29;1911;-78
2022/07/28 06:31:33;;;;;;;;;;;;;;;21.42;30.94;97860.59;4895013;29;1388;-78
2022/07/28 06:33:59;;;;;;;;;;;;;;;21.40;31.03;97857.41;4895638;29;1284;-78
2022/07/28 06:36:24;;;;;;;;;;;;;;;21.45;31.05;97860.50;4901578;29;1073;-78
2022/07/28 06:38:50;;;;;;;;;;;;;;;21.38;31.07;97865.56;4901966;29;913;-78
2022/07/28 06:41:15;;;;;;;;;;;;;;;21.35;31.17;97869.25;4902140;29;935;-78
2022/07/28 06:43:41;;;;;;;;;;;;;;;21.44;30.88;97858.09;4901714;29;933;-77
2022/07/28 06:46:06;;;;;;;;;;;;;;;21.16;31.69;97865.31;4901765;29;868;-78
2022/07/28 06:48:32;;;;;;;;;;;;;;;21.57;30.84;97884.44;4901595;29;1976;-78
2022/07/28 06:50:58;;;;;;;;;;;;;;;21.44;30.96;97872.25;4901699;29;961;-78
2022/07/28 06:53:24;;;;;;;;;;;;;;;21.54;30.85;97879.66;4880915;29;1000;-78
2022/07/28 06:55:49;;;;;;;;;;;;;;;21.52;31.14;97876.47;4880467;29;1235;-78
2022/07/28 06:58:15;;;;;;;;;;;;;;;21.53;30.65;97878.06;4861084;29;918;-78
2022/07/28 07:00:40;;;;;;;;;;;;;;;21.63;30.67;97879.81;4862129;29;992;-78
2022/07/28 07:03:06;;;;;;;;;;;;;;;21.61;30.69;97878.69;4861894;29;969;-78
2022/07/28 07:05:31;;;;;;;;;;;;;;;21.62;30.84;97880.25;4861915;29;1044;-78
2022/07/28 07:07:57;;;;;;;;;;;;;;;21.62;30.63;97888.75;4861571;29;1978;-78
2022/07/28 07:10:22;;;;;;;;;;;;;;;21.51;31.06;97894.72;4861976;29;1058;-77
2022/07/28 07:12:48;;;;;;;;;;;;;;;21.76;30.57;97894.00;4861636;29;1045;-78
2022/07/28 07:15:13;;;;;;;;;;;;;;;21.45;31.30;97885.16;4861761;29;918;-78
2022/07/28 07:17:40;;;;;;;;;;;;;;;21.31;31.62;97884.31;4861895;29;1030;-78
2022/07/28 07:20:06;;;;;;;;;;;;;;;21.65;30.98;97891.47;4861680;29;973;-78
2022/07/28 07:22:31;;;;;;;;;;;;;;;21.70;30.60;97888.09;4861764;29;1042;-78
2022/07/28 07:24:57;;;;;;;;;;;;;;;21.54;31.10;97891.78;4875008;29;1136;-79
2022/07/28 07:27:22;;;;;;;;;;;;;;;21.55;31.07;97893.38;4877481;29;1898;-78
2022/07/28 07:29:48;;;;;;;;;;;;;;;21.50;31.26;97893.09;4878302;29;993;-78
2022/07/28 07:32:13;;;;;;;;;;;;;;;21.38;31.35;97893.84;4900836;29;1046;-78
2022/07/28 07:34:39;;;;;;;;;;;;;;;21.38;31.26;97893.84;4901328;29;1001;-77
2022/07/28 07:37:05;;;;;;;;;;;;;;;21.40;31.37;97880.03;4900621;29;1041;-79
2022/07/28 07:39:31;;;;;;;;;;;;;;;21.45;31.15;97893.66;4900656;29;887;-78
2022/07/28 07:41:56;;;;;;;;;;;;;;;21.54;30.91;97902.31;4900817;29;886;-78
2022/07/28 07:44:22;;;;;;;;;;;;;;;21.87;34.29;97903.00;4900590;29;1082;-78
2022/07/28 07:46:47;;;;;;;;;;;;;;;21.56;34.19;97902.66;4861339;29;1219;-78
2022/07/28 07:49:15;;;;;;;;;;;;;;;21.64;33.53;97906.88;4830262;29;1985;-78
2022/07/28 07:51:41;;;;;;;;;;;;;;;21.65;33.41;97914.13;4861710;29;1025;-78
2022/07/28 07:54:06;;;;;;;;;;;;;;;21.63;32.98;97905.28;4861260;29;889;-78
2022/07/28 07:56:32;;;;;;;;;;;;;;;21.56;32.77;97911.16;4861304;29;918;-79
2022/07/28 07:58:57;;;;;;;;;;;;;;;21.67;32.59;97911.66;4861241;29;879;-79
2022/07/28 08:01:23;;;;;;;;;;;;;;;21.73;32.12;97915.50;4861231;29;976;-78
2022/07/28 08:03:49;;;;;;;;;;;;;;;21.53;32.53;97900.72;4824540;29;963;-80
2022/07/28 08:06:14;;;;;;;;;;;;;;;21.72;32.24;97908.28;4824676;29;976;-78
2022/07/28 08:08:41;;;;;;;;;;;;;;;21.74;31.78;97907.81;4824746;29;1978;-79
2022/07/28 08:11:06;;;;;;;;;;;;;;;21.85;31.52;97908.28;4828281;29;993;-79
2022/07/28 08:13:32;;;;;;;;;;;;;;;21.69;31.68;97897.81;4827650;29;928;-78
2022/07/28 08:15:58;;;;;;;;;;;;;;;21.65;31.98;97902.78;4828073;29;978;-77
2022/07/28 08:18:24;;;;;;;;;;;;;;;21.68;31.60;97901.13;4841770;29;1066;-78
2022/07/28 08:20:49;;;;;;;;;;;;;;;21.77;31.45;97899.22;4846495;29;955;-77
2022/07/28 08:23:14;;;;;;;;;;;;;;;21.68;31.60;97907.56;4846147;29;1035;-78
2022/07/28 08:25:40;;;;;;;;;;;;;;;21.76;31.38;97903.31;4830694;29;1102;-78
2022/07/28 08:28:05;;;;;;;;;;;;;;;21.74;31.40;97908.59;4830712;29;1908;-79
2022/07/28 08:30:31;;;;;;;;;;;;;;;21.64;31.32;97909.69;4846186;29;994;-78
2022/07/28 08:32:56;;;;;;;;;;;;;;;21.63;31.51;97910.16;4846468;29;998;-78
2022/07/28 08:35:22;;;;;;;;;;;;;;;21.36;31.55;97868.84;4888528;29;1181;-78
2022/07/28 08:37:47;;;;;;;;;;;;;;;21.65;31.74;97914.13;4903608;29;1047;-78
2022/07/28 08:40:15;;;;;;;;;;;;;;;21.63;31.48;97915.81;4903682;29;946;-78
2022/07/28 08:42:47;;;;;;;;;;;;;;;21.49;31.87;97917.00;4904089;29;920;-77
2022/07/28 08:45:13;;;;;;;;;;;;;;;21.46;31.68;97920.75;4904099;29;953;-78
2022/07/28 08:47:39;;;;;;;;;;;;;;;21.67;31.45;97922.97;4863477;29;1911;-78
2022/07/28 08:50:04;;;;;;;;;;;;;;;21.68;31.35;97918.91;4845848;29;1113;-78
2022/07/28 08:52:30;;;;;;;;;;;;;;;21.67;31.52;97922.19;4826801;29;1067;-78
2022/07/28 08:54:56;;;;;;;;;;;;;;;21.79;31.03;97924.25;4808825;29;925;-77
2022/07/28 08:57:24;;;;;;;;;;;;;;;21.82;30.92;97923.38;4794419;29;1026;-78
2022/07/28 08:59:50;;;;;;;;;;;;;;;21.77;31.08;97924.72;4791087;30;927;-78
2022/07/28 09:02:15;;;;;;;;;;;;;;;21.73;31.23;97915.50;4772711;30;1209;-79
2022/07/28 09:04:41;;;;;;;;;;;;;;;21.53;31.45;97923.38;4773090;30;1053;-78
2022/07/28 09:07:07;;;;;;;;;;;;;;;21.65;31.47;97924.66;4758066;30;1916;-78
2022/07/28 09:09:32;;;;;;;;;;;;;;;21.72;30.92;97930.94;4754898;30;1019;-79
2022/07/28 09:11:58;;;;;;;;;;;;;;;21.56;31.43;97928.16;4719779;30;1002;-79
2022/07/28 09:14:24;;;;;;;;;;;;;;;21.64;31.47;97935.19;4717577;30;958;-78
2022/07/28 09:16:49;;;;;;;;;;;;;;;21.62;31.41;97937.69;4720055;30;1087;-79
2022/07/28 09:19:15;;;;;;;;;;;;;;;21.54;31.54;97936.28;4707120;30;983;-80
2022/07/28 09:21:40;;;;;;;;;;;;;;;21.55;31.53;97927.34;4714372;30;1032;-79
2022/07/28 09:24:06;;;;;;;;;;;;;;;21.74;31.17;97928.44;4745720;30;1089;-78
2022/07/28 09:26:31;;;;;;;;;;;;;;;21.54;31.72;97924.94;4755002;30;1012;-79
2022/07/28 09:28:57;;;;;;;;;;;;;;;21.69;31.27;97933.84;4754643;30;1916;-79
2022/07/28 09:31:24;;;;;;;;;;;;;;;21.61;31.39;97924.78;4756248;30;950;-79
2022/07/28 09:33:59;;;;;;;;;;;;;;;21.53;31.61;97940.34;4770823;29;974;-79
2022/07/28 09:36:25;;;;;;;;;;;;;;;21.59;31.38;97928.03;4790461;29;1140;-79
2022/07/28 09:38:50;;;;;;;;;;;;;;;21.74;31.06;97933.31;4775524;29;933;-79
2022/07/28 09:41:25;;;;;;;;;;;;;;;21.67;31.46;97942.78;4779737;29;1068;-77
2022/07/28 09:43:50;;;;;;;;;;;;;;;21.64;31.28;97946.50;4837102;29;1108;-79
2022/07/28 09:46:23;;;;;;;;;;;;;;;21.63;31.44;97939.25;4826460;29;1034;-79
2022/07/28 09:48:48;;;;;;;;;;;;;;;21.73;31.53;97932.50;4826303;29;2018;-78
2022/07/28 09:51:14;;;;;;;;;;;;;;;21.78;31.16;97940.47;4826586;29;927;-79
2022/07/28 09:53:40;;;;;;;;;;;;;;;21.52;31.62;97950.09;4826420;29;961;-79
2022/07/28 09:56:06;;;;;;;;;;;;;;;21.63;31.34;97941.31;4811371;29;902;-79
2022/07/28 09:58:31;;;;;;;;;;;;;;;21.73;31.29;97938.16;4826334;29;1023;-78
2022/07/28 10:01:14;;;;;;;;;;;;;;;21.52;31.53;97944.44;4826468;29;1059;-77
2022/07/28 10:03:40;;;;;;;;;;;;;;;21.59;31.63;97945.00;4825877;29;1007;-78
2022/07/28 10:06:09;;;;;;;;;;;;;;;21.62;31.56;97937.69;4826084;29;958;-78
2022/07/28 10:08:41;;;;;;;;;;;;;;;21.57;31.57;97947.50;4820956;29;1982;-79
2022/07/28 10:11:07;;;;;;;;;;;;;;;21.61;31.54;97941.75;4817513;29;1188;-79
2022/07/28 10:13:32;;;;;;;;;;;;;;;21.50;31.56;97946.91;4818867;29;1222;-79
2022/07/28 10:16:10;;;;;;;;;;;;;;;21.64;31.63;97935.19;4825194;29;1813;-78
2022/07/28 10:18:35;;;;;;;;;;;;;;;21.73;31.09;97934.56;4852200;29;1008;-78
2022/07/28 10:21:05;;;;;;;;;;;;;;;21.76;31.12;97942.94;4862465;29;940;-79
2022/07/28 10:23:30;;;;;;;;;;;;;;;21.59;31.56;97933.69;4862525;29;1038;-79
2022/07/28 10:25:56;;;;;;;;;;;;;;;21.58;31.36;97932.09;4843764;29;942;-78
2022/07/28 10:28:22;;;;;;;;;;;;;;;21.65;31.60;97936.78;4844141;29;1980;-79
2022/07/28 10:30:47;;;;;;;;;;;;;;;21.72;31.05;97932.97;4844052;29;1144;-78
2022/07/28 10:33:13;;;;;;;;;;;;;;;21.56;31.39;97950.78;4828568;29;1090;-79
2022/07/28 10:35:38;;;;;;;;;;;;;;;21.70;31.15;97938.25;4827279;29;1087;-79
2022/07/28 10:38:10;;;;;;;;;;;;;;;21.77;30.98;97941.72;4840971;29;1056;-78
2022/07/28 10:40:37;;;;;;;;;;;;;;;21.77;30.94;97941.72;4825806;29;977;-79
2022/07/28 10:43:03;;;;;;;;;;;;;;;21.73;31.38;97943.84;4824838;29;1075;-79
2022/07/28 10:45:28;;;;;;;;;;;;;;;21.66;31.25;97944.03;4826811;29;1317;-78
2022/07/28 10:47:54;;;;;;;;;;;;;;;21.84;30.98;97943.53;4847727;29;1911;-78
2022/07/28 10:50:19;;;;;;;;;;;;;;;21.71;31.17;97949.16;4844225;29;1042;-77
2022/07/28 10:52:45;;;;;;;;;;;;;;;21.82;31.02;97935.50;4844037;29;1004;-78
2022/07/28 10:55:19;;;;;;;;;;;;;;;21.61;31.17;97946.63;4843591;29;1154;-77
2022/07/28 10:57:54;;;;;;;;;;;;;;;21.59;31.30;97952.72;4859190;29;1208;-78
2022/07/28 11:00:20;;;;;;;;;;;;;;;21.58;31.35;97951.13;4876737;29;1327;-79
2022/07/28 11:02:49;;;;;;;;;;;;;;;21.72;31.04;97950.75;4880287;29;936;-77
2022/07/28 11:05:26;;;;;;;;;;;;;;;21.85;30.72;97950.78;4880748;29;956;-76
2022/07/28 11:07:52;;;;;;;;;;;;;;;21.56;31.44;97945.13;4880279;29;1989;-78
2022/07/28 11:10:17;;;;;;;;;;;;;;;21.81;30.93;97948.06;4861653;29;1333;-78
2022/07/28 11:12:47;;;;;;;;;;;;;;;21.71;31.23;97946.34;4861675;29;971;-77
2022/07/28 11:15:25;;;;;;;;;;;;;;;21.51;31.62;97954.16;4862214;29;1043;-78
2022/07/28 11:17:58;;;;;;;;;;;;;;;21.64;31.26;97949.34;4861805;29;923;-78
2022/07/28 11:20:43;;;;;;;;;;;;;;;21.75;30.90;97952.66;4846360;29;1002;-78
2022/07/28 11:23:35;;;;;;;;;;;;;;;21.88;30.92;97949.09;4861529;29;1026;-78
2022/07/28 11:26:18;;;;;;;;;;;;;;;21.77;30.86;97944.53;4817070;29;1009;-79
2022/07/28 11:28:56;;;;;;;;;;;;;;;21.92;31.02;97949.81;4807423;29;1974;-78
2022/07/28 11:31:40;;;;;;;;;;;;;;;20.97;33.25;97952.66;4806519;29;1017;-78
2022/07/28 11:34:07;;;;;;;;;;;;;;;20.88;33.23;97946.03;4806228;29;967;-78
2022/07/28 11:36:51;;;;;;;;;;;;;;;21.03;33.02;97947.28;4788699;29;1314;-78
2022/07/28 11:39:26;;;;;;;;;;;;;;;21.38;33.19;97950.47;4788459;29;1026;-78
2022/07/28 11:41:52;;;;;;;;;;;;;;;21.71;32.54;97946.34;4793665;29;1204;-78
2022/07/28 11:44:24;;;;;;;;;;;;;;;21.85;32.29;97948.75;4783287;29;1306;-78
2022/07/28 11:46:49;;;;;;;;;;;;;;;21.88;31.94;97943.44;4775643;30;1282;-77
2022/07/28 11:49:16;;;;;;;;;;;;;;;21.84;31.75;97949.19;4752800;30;1973;-78
2022/07/28 11:51:42;;;;;;;;;;;;;;;21.72;31.80;97939.41;4752610;30;981;-77
2022/07/28 11:54:14;;;;;;;;;;;;;;;21.68;31.80;97947.22;4767443;30;1368;-77
2022/07/28 11:56:40;;;;;;;;;;;;;;;21.55;31.99;97949.19;4767710;30;1081;-78
2022/07/28 11:59:05;;;;;;;;;;;;;;;21.58;31.85;97953.97;4753002;30;978;-77
2022/07/28 12:01:32;;;;;;;;;;;;;;;21.64;31.81;97957.84;4752666;30;944;-77
2022/07/28 12:04:00;;;;;;;;;;;;;;;21.56;32.13;97950.78;4755145;30;1102;-79
2022/07/28 12:06:33;;;;;;;;;;;;;;;21.48;32.07;97955.06;4769456;30;1219;-79
2022/07/28 12:08:59;;;;;;;;;;;;;;;21.67;31.90;97956.97;4769774;30;1904;-79
2022/07/28 12:11:26;;;;;;;;;;;;;;;21.52;31.94;97950.09;4706578;30;1435;-80
2022/07/28 12:14:01;;;;;;;;;;;;;;;21.68;31.89;97946.41;4707172;30;1363;-78
2022/07/28 12:16:27;;;;;;;;;;;;;;;21.67;31.63;97939.97;4717663;30;1031;-79
2022/07/28 12:18:52;;;;;;;;;;;;;;;21.62;31.65;97951.84;4699998;30;1456;-79
2022/07/28 12:21:36;;;;;;;;;;;;;;;21.59;31.91;97949.88;4683969;30;1038;-78
2022/07/28 12:24:02;;;;;;;;;;;;;;;21.72;31.41;97942.25;4696305;30;1036;-79
2022/07/28 12:26:30;;;;;;;;;;;;;;;21.82;31.40;97946.81;4717641;30;942;-79
2022/07/28 12:28:56;;;;;;;;;;;;;;;21.65;31.57;97953.75;4710544;30;1985;-79
2022/07/28 12:31:24;;;;;;;;;;;;;;;21.77;31.11;97953.03;4692411;30;1340;-79
2022/07/28 12:33:51;;;;;;;;;;;;;;;21.83;31.12;97947.63;4691306;30;1280;-78
2022/07/28 12:36:18;;;;;;;;;;;;;;;21.69;31.54;97954.47;4725182;30;1339;-79
2022/07/28 12:38:43;;;;;;;;;;;;;;;21.79;31.28;97953.38;4761314;30;1236;-79
2022/07/28 12:41:12;;;;;;;;;;;;;;;21.58;31.67;97949.09;4724312;30;1347;-78
2022/07/28 12:43:38;;;;;;;;;;;;;;;21.71;31.26;97945.50;4717341;30;1301;-80
2022/07/28 12:46:03;;;;;;;;;;;;;;;21.61;31.57;97947.41;4729681;30;1304;-78
2022/07/28 12:48:29;;;;;;;;;;;;;;;21.57;31.52;97946.72;4734356;30;1904;-78
2022/07/28 12:50:54;;;;;;;;;;;;;;;21.71;31.45;97940.66;4822625;29;1256;-79
2022/07/28 12:53:21;;;;;;;;;;;;;;;21.66;31.53;97940.38;4834017;29;1215;-79
2022/07/28 12:55:47;;;;;;;;;;;;;;;21.80;31.15;97932.28;4802087;29;1303;-79
2022/07/28 12:58:28;;;;;;;;;;;;;;;21.54;31.48;97947.59;4836514;29;1203;-79
2022/07/28 13:00:53;;;;;;;;;;;;;;;21.84;30.94;97947.16;4836097;29;1315;-79